sensor_id;sensor_type;location;lat;lon;timestamp;pressure;altitude;pressure_sealevel;temperature;humidity
71601;BME280;59446;52.192;4.628;2022-07-11T00:01:38;102536.28;;;23.33;51.02
71601;BME280;59446;52.192;4.628;2022-07-11T00:04:03;102537.31;;;23.30;51.11
71601;BME280;59446;52.192;4.628;2022-07-11T00:06:29;102536.34;;;23.31;51.02
71601;BME280;59446;52.192;4.628;2022-07-11T00:08:54;102536.44;;;23.30;50.93
71601;BME280;59446;52.192;4.628;2022-07-11T00:11:19;102542.63;;;23.30;51.04
71601;BME280;59446;52.192;4.628;2022-07-11T00:13:45;102540.91;;;23.29;50.75
71601;BME280;59446;52.192;4.628;2022-07-11T00:16:10;102534.66;;;23.30;50.94
71601;BME280;59446;52.192;4.628;2022-07-11T00:18:36;102538.25;;;23.29;50.85
71601;BME280;59446;52.192;4.628;2022-07-11T00:21:01;102534.03;;;23.25;50.79
71601;BME280;59446;52.192;4.628;2022-07-11T00:23:26;102531.31;;;23.27;50.95
71601;BME280;59446;52.192;4.628;2022-07-11T00:25:52;102533.09;;;23.26;51.22
71601;BME280;59446;52.192;4.628;2022-07-11T00:28:17;102531.47;;;23.24;51.18
71601;BME280;59446;52.192;4.628;2022-07-11T00:30:42;102536.88;;;23.22;50.66
71601;BME280;59446;52.192;4.628;2022-07-11T00:33:08;102532.31;;;23.24;51.13
71601;BME280;59446;52.192;4.628;2022-07-11T00:35:33;102524.34;;;23.24;51.11
71601;BME280;59446;52.192;4.628;2022-07-11T00:37:59;102529.75;;;23.23;51.05
71601;BME280;59446;52.192;4.628;2022-07-11T00:40:24;102525.38;;;23.22;51.35
71601;BME280;59446;52.192;4.628;2022-07-11T00:42:50;102524.53;;;23.21;51.19
71601;BME280;59446;52.192;4.628;2022-07-11T00:45:15;102529.00;;;23.21;51.25
71601;BME280;59446;52.192;4.628;2022-07-11T00:47:41;102522.72;;;23.22;51.20
71601;BME280;59446;52.192;4.628;2022-07-11T00:50:06;102518.44;;;23.19;51.45
71601;BME280;59446;52.192;4.628;2022-07-11T00:52:34;102517.59;;;23.19;50.97
71601;BME280;59446;52.192;4.628;2022-07-11T00:55:00;102516.72;;;23.18;51.23
71601;BME280;59446;52.192;4.628;2022-07-11T00:57:26;102522.03;;;23.18;51.36
71601;BME280;59446;52.192;4.628;2022-07-11T00:59:51;102520.31;;;23.17;51.31
71601;BME280;59446;52.192;4.628;2022-07-11T01:02:18;102528.22;;;23.19;51.36
71601;BME280;59446;52.192;4.628;2022-07-11T01:04:43;102525.66;;;23.17;51.10
71601;BME280;59446;52.192;4.628;2022-07-11T01:07:08;102519.47;;;23.17;51.43
71601;BME280;59446;52.192;4.628;2022-07-11T01:09:34;102516.91;;;23.15;51.33
71601;BME280;59446;52.192;4.628;2022-07-11T01:12:00;102523.25;;;23.13;51.41
71601;BME280;59446;52.192;4.628;2022-07-11T01:14:25;102522.31;;;23.14;51.26
71601;BME280;59446;52.192;4.628;2022-07-11T01:16:50;102519.72;;;23.12;51.61
71601;BME280;59446;52.192;4.628;2022-07-11T01:19:16;102515.28;;;23.13;51.34
71601;BME280;59446;52.192;4.628;2022-07-11T01:21:43;102524.16;;;23.12;51.28
71601;BME280;59446;52.192;4.628;2022-07-11T01:24:13;102530.41;;;23.11;51.41
71601;BME280;59446;52.192;4.628;2022-07-11T01:26:39;102530.41;;;23.11;51.08
71601;BME280;59446;52.192;4.628;2022-07-11T01:31:30;102524.25;;;23.10;51.39
71601;BME280;59446;52.192;4.628;2022-07-11T01:33:57;102527.06;;;23.07;51.51
71601;BME280;59446;52.192;4.628;2022-07-11T01:36:22;102525.25;;;23.08;51.43
71601;BME280;59446;52.192;4.628;2022-07-11T01:38:47;102521.84;;;23.06;51.17
71601;BME280;59446;52.192;4.628;2022-07-11T01:41:13;102523.63;;;23.05;51.39
71601;BME280;59446;52.192;4.628;2022-07-11T01:43:38;102520.13;;;23.04;51.56
71601;BME280;59446;52.192;4.628;2022-07-11T01:46:04;102522.88;;;23.03;51.54
71601;BME280;59446;52.192;4.628;2022-07-11T01:48:29;102522.00;;;23.02;51.60
71601;BME280;59446;52.192;4.628;2022-07-11T01:50:55;102516.69;;;23.02;51.46
71601;BME280;59446;52.192;4.628;2022-07-11T01:53:20;102518.50;;;23.02;51.58
71601;BME280;59446;52.192;4.628;2022-07-11T01:55:46;102516.78;;;23.01;51.55
71601;BME280;59446;52.192;4.628;2022-07-11T01:58:11;102509.66;;;23.01;51.43
71601;BME280;59446;52.192;4.628;2022-07-11T02:00:37;102516.88;;;22.99;51.52
71601;BME280;59446;52.192;4.628;2022-07-11T02:03:02;102514.22;;;22.99;51.52
71601;BME280;59446;52.192;4.628;2022-07-11T02:05:28;102520.38;;;23.00;51.38
71601;BME280;59446;52.192;4.628;2022-07-11T02:07:53;102512.41;;;23.00;51.61
71601;BME280;59446;52.192;4.628;2022-07-11T02:10:42;102515.06;;;23.00;51.57
71601;BME280;59446;52.192;4.628;2022-07-11T02:13:08;102515.13;;;22.98;51.27
71601;BME280;59446;52.192;4.628;2022-07-11T02:15:35;102511.69;;;22.96;51.33
71601;BME280;59446;52.192;4.628;2022-07-11T02:18:00;102517.09;;;22.95;51.47
71601;BME280;59446;52.192;4.628;2022-07-11T02:20:26;102508.16;;;22.96;51.45
71601;BME280;59446;52.192;4.628;2022-07-11T02:22:52;102507.31;;;22.95;51.51
71601;BME280;59446;52.192;4.628;2022-07-11T02:25:18;102514.44;;;22.95;51.55
71601;BME280;59446;52.192;4.628;2022-07-11T02:27:44;102507.47;;;22.92;51.76
71601;BME280;59446;52.192;4.628;2022-07-11T02:30:10;102512.78;;;22.92;51.63
71601;BME280;59446;52.192;4.628;2022-07-11T02:32:37;102502.25;;;22.91;51.80
71601;BME280;59446;52.192;4.628;2022-07-11T02:35:03;102516.41;;;22.91;51.71
71601;BME280;59446;52.192;4.628;2022-07-11T02:37:29;102503.97;;;22.92;51.48
71601;BME280;59446;52.192;4.628;2022-07-11T02:39:54;102507.56;;;22.91;50.82
71601;BME280;59446;52.192;4.628;2022-07-11T02:42:20;102500.53;;;22.90;51.63
71601;BME280;59446;52.192;4.628;2022-07-11T02:44:45;102491.63;;;22.91;51.39
71601;BME280;59446;52.192;4.628;2022-07-11T02:47:11;102496.94;;;22.91;51.55
71601;BME280;59446;52.192;4.628;2022-07-11T02:49:36;102493.44;;;22.90;51.66
71601;BME280;59446;52.192;4.628;2022-07-11T02:52:03;102494.34;;;22.89;51.58
71601;BME280;59446;52.192;4.628;2022-07-11T02:54:29;102498.78;;;22.89;51.63
71601;BME280;59446;52.192;4.628;2022-07-11T02:56:54;102506.75;;;22.89;51.50
71601;BME280;59446;52.192;4.628;2022-07-11T02:59:20;102502.47;;;22.86;51.91
71601;BME280;59446;52.192;4.628;2022-07-11T03:01:46;102506.00;;;22.87;51.59
71601;BME280;59446;52.192;4.628;2022-07-11T03:04:11;102506.84;;;22.87;51.64
71601;BME280;59446;52.192;4.628;2022-07-11T03:06:38;102501.63;;;22.86;51.60
71601;BME280;59446;52.192;4.628;2022-07-11T03:09:04;102501.63;;;22.86;51.67
71601;BME280;59446;52.192;4.628;2022-07-11T03:11:30;102508.81;;;22.84;51.76
71601;BME280;59446;52.192;4.628;2022-07-11T03:13:56;102504.34;;;22.84;51.61
71601;BME280;59446;52.192;4.628;2022-07-11T03:16:21;102500.84;;;22.84;51.70
71601;BME280;59446;52.192;4.628;2022-07-11T03:18:46;102498.19;;;22.84;51.61
71601;BME280;59446;52.192;4.628;2022-07-11T03:21:12;102500.94;;;22.82;51.72
71601;BME280;59446;52.192;4.628;2022-07-11T03:23:37;102506.31;;;22.81;51.70
71601;BME280;59446;52.192;4.628;2022-07-11T03:26:02;102510.78;;;22.80;51.84
71601;BME280;59446;52.192;4.628;2022-07-11T03:28:28;102515.25;;;22.80;51.75
71601;BME280;59446;52.192;4.628;2022-07-11T03:30:54;102517.97;;;22.78;51.64
71601;BME280;59446;52.192;4.628;2022-07-11T03:33:20;102512.59;;;22.80;51.75
71601;BME280;59446;52.192;4.628;2022-07-11T03:35:46;102510.88;;;22.79;52.14
71601;BME280;59446;52.192;4.628;2022-07-11T03:38:12;102509.06;;;22.79;51.84
71601;BME280;59446;52.192;4.628;2022-07-11T03:40:38;102516.25;;;22.77;51.71
71601;BME280;59446;52.192;4.628;2022-07-11T03:43:04;102511.88;;;22.76;51.69
71601;BME280;59446;52.192;4.628;2022-07-11T03:45:30;102516.25;;;22.77;51.87
71601;BME280;59446;52.192;4.628;2022-07-11T03:47:55;102515.41;;;22.77;51.60
71601;BME280;59446;52.192;4.628;2022-07-11T03:50:20;102528.84;;;22.73;51.91
71601;BME280;59446;52.192;4.628;2022-07-11T03:52:46;102526.97;;;22.76;51.84
71601;BME280;59446;52.192;4.628;2022-07-11T03:55:12;102527.13;;;22.72;51.85
71601;BME280;59446;52.192;4.628;2022-07-11T03:57:37;102514.72;;;22.73;51.96
71601;BME280;59446;52.192;4.628;2022-07-11T04:00:05;102521.66;;;22.76;52.09
71601;BME280;59446;52.192;4.628;2022-07-11T04:02:32;102523.53;;;22.73;51.78
71601;BME280;59446;52.192;4.628;2022-07-11T04:04:57;102530.72;;;22.71;51.75
71601;BME280;59446;52.192;4.628;2022-07-11T04:07:22;102520.97;;;22.72;51.72
71601;BME280;59446;52.192;4.628;2022-07-11T04:09:48;102515.66;;;22.72;51.76
71601;BME280;59446;52.192;4.628;2022-07-11T04:12:13;102515.75;;;22.70;51.96
71601;BME280;59446;52.192;4.628;2022-07-11T04:14:39;102514.88;;;22.70;51.91
71601;BME280;59446;52.192;4.628;2022-07-11T04:17:04;102521.06;;;22.70;51.85
71601;BME280;59446;52.192;4.628;2022-07-11T04:19:29;102524.56;;;22.71;51.82
71601;BME280;59446;52.192;4.628;2022-07-11T04:21:55;102508.63;;;22.71;51.82
71601;BME280;59446;52.192;4.628;2022-07-11T04:24:21;102513.09;;;22.70;51.70
71601;BME280;59446;52.192;4.628;2022-07-11T04:26:46;102509.66;;;22.68;51.89
71601;BME280;59446;52.192;4.628;2022-07-11T04:29:12;102516.75;;;22.68;51.79
71601;BME280;59446;52.192;4.628;2022-07-11T04:31:37;102510.59;;;22.67;51.85
71601;BME280;59446;52.192;4.628;2022-07-11T04:34:03;102506.13;;;22.68;51.93
71601;BME280;59446;52.192;4.628;2022-07-11T04:36:28;102505.34;;;22.66;51.66
71601;BME280;59446;52.192;4.628;2022-07-11T04:38:54;102516.81;;;22.66;51.80
71601;BME280;59446;52.192;4.628;2022-07-11T04:41:19;102521.25;;;22.66;51.72
71601;BME280;59446;52.192;4.628;2022-07-11T04:43:45;102519.47;;;22.66;51.78
71601;BME280;59446;52.192;4.628;2022-07-11T04:46:10;102519.47;;;22.66;51.95
71601;BME280;59446;52.192;4.628;2022-07-11T04:48:36;102518.59;;;22.66;51.89
71601;BME280;59446;52.192;4.628;2022-07-11T04:51:04;102513.31;;;22.66;51.86
71601;BME280;59446;52.192;4.628;2022-07-11T04:53:30;102523.06;;;22.65;51.84
71601;BME280;59446;52.192;4.628;2022-07-11T04:55:55;102524.78;;;22.66;51.81
71601;BME280;59446;52.192;4.628;2022-07-11T04:58:21;102522.22;;;22.65;51.84
71601;BME280;59446;52.192;4.628;2022-07-11T05:00:46;102524.94;;;22.63;51.79
71601;BME280;59446;52.192;4.628;2022-07-11T05:03:11;102529.41;;;22.63;51.69
71601;BME280;59446;52.192;4.628;2022-07-11T05:05:37;102529.31;;;22.64;52.07
71601;BME280;59446;52.192;4.628;2022-07-11T05:08:03;102529.31;;;22.64;51.68
71601;BME280;59446;52.192;4.628;2022-07-11T05:10:28;102534.63;;;22.64;51.77
71601;BME280;59446;52.192;4.628;2022-07-11T05:12:56;102531.03;;;22.65;51.88
71601;BME280;59446;52.192;4.628;2022-07-11T05:15:21;102535.47;;;22.65;51.65
71601;BME280;59446;52.192;4.628;2022-07-11T05:17:48;102540.78;;;22.65;51.87
71601;BME280;59446;52.192;4.628;2022-07-11T05:20:13;102540.88;;;22.63;51.85
71601;BME280;59446;52.192;4.628;2022-07-11T05:22:39;102542.69;;;22.63;51.57
71601;BME280;59446;52.192;4.628;2022-07-11T05:25:05;102548.06;;;22.61;51.84
71601;BME280;59446;52.192;4.628;2022-07-11T05:27:30;102550.66;;;22.63;51.74
71601;BME280;59446;52.192;4.628;2022-07-11T05:29:56;102547.13;;;22.62;51.88
71601;BME280;59446;52.192;4.628;2022-07-11T05:32:21;102558.59;;;22.63;52.01
71601;BME280;59446;52.192;4.628;2022-07-11T05:34:46;102560.41;;;22.62;51.62
71601;BME280;59446;52.192;4.628;2022-07-11T05:37:12;102563.84;;;22.64;51.79
71601;BME280;59446;52.192;4.628;2022-07-11T05:39:37;102566.56;;;22.63;51.67
71601;BME280;59446;52.192;4.628;2022-07-11T05:42:03;102566.56;;;22.63;51.92
71601;BME280;59446;52.192;4.628;2022-07-11T05:44:28;102564.88;;;22.62;51.45
71601;BME280;59446;52.192;4.628;2022-07-11T05:46:58;102565.72;;;22.62;51.67
71601;BME280;59446;52.192;4.628;2022-07-11T05:49:24;102567.44;;;22.63;51.71
71601;BME280;59446;52.192;4.628;2022-07-11T05:51:50;102566.56;;;22.63;51.92
71601;BME280;59446;52.192;4.628;2022-07-11T05:54:15;102562.97;;;22.64;51.63
71601;BME280;59446;52.192;4.628;2022-07-11T05:56:41;102562.13;;;22.63;51.47
71601;BME280;59446;52.192;4.628;2022-07-11T05:59:07;102563.06;;;22.62;51.62
71601;BME280;59446;52.192;4.628;2022-07-11T06:01:32;102555.00;;;22.64;51.87
71601;BME280;59446;52.192;4.628;2022-07-11T06:03:58;102558.53;;;22.64;51.68
71601;BME280;59446;52.192;4.628;2022-07-11T06:06:25;102549.63;;;22.65;51.76
71601;BME280;59446;52.192;4.628;2022-07-11T06:08:50;102553.22;;;22.64;51.47
71601;BME280;59446;52.192;4.628;2022-07-11T06:11:16;102552.16;;;22.68;51.38
71601;BME280;59446;52.192;4.628;2022-07-11T06:13:42;102559.19;;;22.69;51.25
71601;BME280;59446;52.192;4.628;2022-07-11T06:16:09;102549.41;;;22.70;51.20
71601;BME280;59446;52.192;4.628;2022-07-11T06:18:35;102551.19;;;22.69;51.42
71601;BME280;59446;52.192;4.628;2022-07-11T06:21:01;102544.09;;;22.70;51.39
71601;BME280;59446;52.192;4.628;2022-07-11T06:23:27;102551.19;;;22.69;51.40
71601;BME280;59446;52.192;4.628;2022-07-11T06:25:53;102545.81;;;22.71;51.34
71601;BME280;59446;52.192;4.628;2022-07-11T06:28:19;102544.88;;;22.72;51.50
71601;BME280;59446;52.192;4.628;2022-07-11T06:30:44;102541.34;;;22.71;51.36
71601;BME280;59446;52.192;4.628;2022-07-11T06:33:10;102553.69;;;22.72;51.40
71601;BME280;59446;52.192;4.628;2022-07-11T06:35:35;102546.66;;;22.71;51.31
71601;BME280;59446;52.192;4.628;2022-07-11T06:38:01;102545.91;;;22.69;51.50
71601;BME280;59446;52.192;4.628;2022-07-11T06:40:26;102544.09;;;22.70;51.37
71601;BME280;59446;52.192;4.628;2022-07-11T06:42:52;102540.41;;;22.72;51.60
71601;BME280;59446;52.192;4.628;2022-07-11T06:45:17;102551.03;;;22.72;51.39
71601;BME280;59446;52.192;4.628;2022-07-11T06:47:42;102547.44;;;22.73;51.36
71601;BME280;59446;52.192;4.628;2022-07-11T06:50:08;102549.16;;;22.74;51.32
71601;BME280;59446;52.192;4.628;2022-07-11T06:52:34;102549.16;;;22.74;51.67
71601;BME280;59446;52.192;4.628;2022-07-11T06:55:00;102557.13;;;22.74;51.46
71601;BME280;59446;52.192;4.628;2022-07-11T06:57:25;102555.34;;;22.75;51.39
71601;BME280;59446;52.192;4.628;2022-07-11T06:59:51;102558.75;;;22.77;51.28
71601;BME280;59446;52.192;4.628;2022-07-11T07:02:16;102562.28;;;22.78;51.38
71601;BME280;59446;52.192;4.628;2022-07-11T07:04:42;102560.47;;;22.78;51.49
71601;BME280;59446;52.192;4.628;2022-07-11T07:07:07;102566.66;;;22.79;51.41
71601;BME280;59446;52.192;4.628;2022-07-11T07:09:32;102570.09;;;22.81;51.50
71601;BME280;59446;52.192;4.628;2022-07-11T07:11:58;102574.44;;;22.82;51.45
71601;BME280;59446;52.192;4.628;2022-07-11T07:14:23;102567.34;;;22.82;51.38
71601;BME280;59446;52.192;4.628;2022-07-11T07:16:49;102569.06;;;22.83;51.50
71601;BME280;59446;52.192;4.628;2022-07-11T07:19:14;102563.75;;;22.83;51.42
71601;BME280;59446;52.192;4.628;2022-07-11T07:21:40;102570.84;;;22.83;51.44
71601;BME280;59446;52.192;4.628;2022-07-11T07:24:06;102567.34;;;22.82;51.83
71601;BME280;59446;52.192;4.628;2022-07-11T07:26:32;102575.31;;;22.82;51.44
71601;BME280;59446;52.192;4.628;2022-07-11T07:28:58;102572.75;;;22.81;51.46
71601;BME280;59446;52.192;4.628;2022-07-11T07:31:23;102574.38;;;22.83;51.46
71601;BME280;59446;52.192;4.628;2022-07-11T07:33:49;102569.06;;;22.83;51.60
71601;BME280;59446;52.192;4.628;2022-07-11T07:36:15;102584.13;;;22.83;51.45
71601;BME280;59446;52.192;4.628;2022-07-11T07:38:41;102576.09;;;22.84;51.67
71601;BME280;59446;52.192;4.628;2022-07-11T07:41:11;102577.81;;;22.85;51.46
71601;BME280;59446;52.192;4.628;2022-07-11T07:43:36;102576.94;;;22.85;51.82
71601;BME280;59446;52.192;4.628;2022-07-11T07:46:02;102574.28;;;22.85;51.61
71601;BME280;59446;52.192;4.628;2022-07-11T07:48:27;102575.91;;;22.87;51.58
71601;BME280;59446;52.192;4.628;2022-07-11T07:50:53;102578.56;;;22.87;51.99
71601;BME280;59446;52.192;4.628;2022-07-11T07:53:19;102573.19;;;22.89;51.69
71601;BME280;59446;52.192;4.628;2022-07-11T07:55:44;102571.47;;;22.88;52.14
71601;BME280;59446;52.192;4.628;2022-07-11T07:58:10;102583.03;;;22.87;52.26
71601;BME280;59446;52.192;4.628;2022-07-11T08:00:35;102587.41;;;22.88;51.37
71601;BME280;59446;52.192;4.628;2022-07-11T08:03:19;102585.56;;;22.90;52.12
71601;BME280;59446;52.192;4.628;2022-07-11T08:05:44;102578.50;;;22.89;52.76
71601;BME280;59446;52.192;4.628;2022-07-11T08:08:09;102578.44;;;22.90;52.06
71601;BME280;59446;52.192;4.628;2022-07-11T08:10:35;102583.81;;;22.89;52.66
71601;BME280;59446;52.192;4.628;2022-07-11T08:13:02;102587.28;;;22.91;52.44
71601;BME280;59446;52.192;4.628;2022-07-11T08:15:28;102589.00;;;22.92;52.44
71601;BME280;59446;52.192;4.628;2022-07-11T08:17:53;102585.38;;;22.93;52.30
71601;BME280;59446;52.192;4.628;2022-07-11T08:20:19;102593.38;;;22.93;52.62
71601;BME280;59446;52.192;4.628;2022-07-11T08:22:45;102583.69;;;22.92;52.36
71601;BME280;59446;52.192;4.628;2022-07-11T08:25:10;102589.00;;;22.92;52.29
71601;BME280;59446;52.192;4.628;2022-07-11T08:27:35;102583.69;;;22.92;52.33
71601;BME280;59446;52.192;4.628;2022-07-11T08:30:07;102586.34;;;22.92;52.22
71601;BME280;59446;52.192;4.628;2022-07-11T08:32:33;102573.91;;;22.92;52.64
71601;BME280;59446;52.192;4.628;2022-07-11T08:34:59;102578.38;;;22.92;52.36
71601;BME280;59446;52.192;4.628;2022-07-11T08:37:24;102587.19;;;22.92;52.65
71601;BME280;59446;52.192;4.628;2022-07-11T08:39:51;102588.13;;;22.91;52.38
71601;BME280;59446;52.192;4.628;2022-07-11T08:42:19;102584.63;;;22.91;53.03
71601;BME280;59446;52.192;4.628;2022-07-11T08:44:45;102581.97;;;22.91;52.63
71601;BME280;59446;52.192;4.628;2022-07-11T08:47:11;102585.31;;;22.94;52.94
71601;BME280;59446;52.192;4.628;2022-07-11T08:49:38;102583.44;;;22.96;52.66
71601;BME280;59446;52.192;4.628;2022-07-11T08:52:05;102583.34;;;22.98;52.69
71601;BME280;59446;52.192;4.628;2022-07-11T08:54:32;102582.47;;;22.97;52.94
71601;BME280;59446;52.192;4.628;2022-07-11T08:56:58;102581.53;;;22.98;52.84
71601;BME280;59446;52.192;4.628;2022-07-11T08:59:25;102578.84;;;23.00;53.23
71601;BME280;59446;52.192;4.628;2022-07-11T09:01:54;102580.56;;;23.01;52.80
71601;BME280;59446;52.192;4.628;2022-07-11T09:04:23;102575.06;;;23.04;52.64
71601;BME280;59446;52.192;4.628;2022-07-11T09:06:48;102574.81;;;23.09;52.91
71601;BME280;59446;52.192;4.628;2022-07-11T09:09:14;102570.22;;;23.12;52.96
71601;BME280;59446;52.192;4.628;2022-07-11T09:11:56;102570.13;;;23.14;52.87
71601;BME280;59446;52.192;4.628;2022-07-11T09:14:27;102569.28;;;23.13;52.71
71601;BME280;59446;52.192;4.628;2022-07-11T09:19:28;102567.31;;;23.17;52.71
71601;BME280;59446;52.192;4.628;2022-07-11T09:22:13;102572.53;;;23.18;52.60
71601;BME280;59446;52.192;4.628;2022-07-11T09:25:04;102575.03;;;23.21;52.21
71601;BME280;59446;52.192;4.628;2022-07-11T09:27:52;102563.47;;;23.22;52.36
71601;BME280;59446;52.192;4.628;2022-07-11T09:30:29;102573.91;;;23.25;52.09
71601;BME280;59446;52.192;4.628;2022-07-11T09:33:00;102570.31;;;23.26;52.30
71601;BME280;59446;52.192;4.628;2022-07-11T09:35:34;102574.44;;;23.32;52.16
71601;BME280;59446;52.192;4.628;2022-07-11T09:38:08;102567.50;;;23.29;52.34
71601;BME280;59446;52.192;4.628;2022-07-11T09:40:36;102570.84;;;23.33;52.19
71601;BME280;59446;52.192;4.628;2022-07-11T09:43:02;102570.06;;;23.31;52.34
71601;BME280;59446;52.192;4.628;2022-07-11T09:45:30;102575.38;;;23.31;52.33
71601;BME280;59446;52.192;4.628;2022-07-11T09:48:01;102564.66;;;23.32;51.93
71601;BME280;59446;52.192;4.628;2022-07-11T09:50:30;102571.78;;;23.32;52.16
71601;BME280;59446;52.192;4.628;2022-07-11T09:53:14;102572.53;;;23.34;51.85
71601;BME280;59446;52.192;4.628;2022-07-11T09:55:42;102566.47;;;23.32;51.91
71601;BME280;59446;52.192;4.628;2022-07-11T09:58:09;102576.78;;;23.38;51.88
71601;BME280;59446;52.192;4.628;2022-07-11T10:00:36;102563.22;;;23.43;52.06
71601;BME280;59446;52.192;4.628;2022-07-11T10:03:03;102567.88;;;23.39;52.06
71601;BME280;59446;52.192;4.628;2022-07-11T10:05:29;102563.56;;;23.37;51.97
71601;BME280;59446;52.192;4.628;2022-07-11T10:07:56;102567.78;;;23.41;52.16
71601;BME280;59446;52.192;4.628;2022-07-11T10:10:23;102567.59;;;23.44;51.60
71601;BME280;59446;52.192;4.628;2022-07-11T10:12:50;102569.41;;;23.43;51.55
71601;BME280;59446;52.192;4.628;2022-07-11T10:15:19;102566.66;;;23.45;51.70
71601;BME280;59446;52.192;4.628;2022-07-11T10:18:04;102559.44;;;23.47;51.64
71601;BME280;59446;52.192;4.628;2022-07-11T10:20:46;102562.78;;;23.50;51.76
71601;BME280;59446;52.192;4.628;2022-07-11T10:23:38;102558.69;;;23.45;51.91
71601;BME280;59446;52.192;4.628;2022-07-11T10:26:13;102549.66;;;23.47;51.79
71601;BME280;59446;52.192;4.628;2022-07-11T10:28:53;102548.81;;;23.47;51.21
71601;BME280;59446;52.192;4.628;2022-07-11T10:31:24;102561.84;;;23.51;51.77
71601;BME280;59446;52.192;4.628;2022-07-11T10:34:06;102562.78;;;23.50;51.45
71601;BME280;59446;52.192;4.628;2022-07-11T10:36:34;102562.72;;;23.52;51.58
71601;BME280;59446;52.192;4.628;2022-07-11T10:39:20;102567.84;;;23.55;51.76
71601;BME280;59446;52.192;4.628;2022-07-11T10:41:57;102564.19;;;23.57;51.47
71601;BME280;59446;52.192;4.628;2022-07-11T10:44:23;102566.75;;;23.59;51.10
71601;BME280;59446;52.192;4.628;2022-07-11T10:46:50;102563.06;;;23.61;51.22
71601;BME280;59446;52.192;4.628;2022-07-11T10:49:17;102553.28;;;23.62;51.40
71601;BME280;59446;52.192;4.628;2022-07-11T10:54:28;102550.00;;;23.57;51.53
71601;BME280;59446;52.192;4.628;2022-07-11T10:57:49;102560.63;;;23.57;51.84
71601;BME280;59446;52.192;4.628;2022-07-11T11:00:02;102561.53;;;23.57;51.43
71601;BME280;59446;52.192;4.628;2022-07-11T11:02:29;102555.31;;;23.57;51.55
71601;BME280;59446;52.192;4.628;2022-07-11T11:04:55;102564.97;;;23.59;51.40
71601;BME280;59446;52.192;4.628;2022-07-11T11:07:56;102570.97;;;23.63;51.75
71601;BME280;59446;52.192;4.628;2022-07-11T11:15:43;102566.00;;;23.73;51.25
71601;BME280;59446;52.192;4.628;2022-07-11T11:18:30;102561.34;;;23.76;51.52
71601;BME280;59446;52.192;4.628;2022-07-11T11:26:09;102552.69;;;23.73;51.43
71601;BME280;59446;52.192;4.628;2022-07-11T11:28:36;102551.66;;;23.75;51.30
71601;BME280;59446;52.192;4.628;2022-07-11T11:31:03;102550.72;;;23.76;51.58
71601;BME280;59446;52.192;4.628;2022-07-11T11:33:32;102555.09;;;23.77;51.73
71601;BME280;59446;52.192;4.628;2022-07-11T11:38:38;102547.03;;;23.79;51.46
71601;BME280;59446;52.192;4.628;2022-07-11T11:41:05;102553.19;;;23.79;51.34
71601;BME280;59446;52.192;4.628;2022-07-11T11:43:31;102541.66;;;23.80;51.25
71601;BME280;59446;52.192;4.628;2022-07-11T11:45:57;102547.81;;;23.81;51.15
71601;BME280;59446;52.192;4.628;2022-07-11T11:48:33;102549.63;;;23.80;51.22
71601;BME280;59446;52.192;4.628;2022-07-11T11:53:45;102548.69;;;23.81;51.84
71601;BME280;59446;52.192;4.628;2022-07-11T11:56:15;102556.66;;;23.81;51.69
71601;BME280;59446;52.192;4.628;2022-07-11T11:58:44;102551.50;;;23.78;51.20
71601;BME280;59446;52.192;4.628;2022-07-11T12:01:14;102552.44;;;23.77;51.45
71601;BME280;59446;52.192;4.628;2022-07-11T12:03:54;102552.34;;;23.79;51.94
71601;BME280;59446;52.192;4.628;2022-07-11T12:06:29;102545.94;;;23.83;51.63
71601;BME280;59446;52.192;4.628;2022-07-11T12:09:02;102556.22;;;23.89;51.49
71601;BME280;59446;52.192;4.628;2022-07-11T12:11:29;102552.41;;;23.93;51.39
71601;BME280;59446;52.192;4.628;2022-07-11T12:13:59;102549.84;;;23.91;51.46
71601;BME280;59446;52.192;4.628;2022-07-11T12:16:26;102548.13;;;23.90;51.16
71601;BME280;59446;52.192;4.628;2022-07-11T12:19:17;102553.47;;;23.90;51.45
71601;BME280;59446;52.192;4.628;2022-07-11T12:21:45;102550.53;;;23.95;51.38
71601;BME280;59446;52.192;4.628;2022-07-11T12:24:12;102552.34;;;23.94;51.42
71601;BME280;59446;52.192;4.628;2022-07-11T12:26:40;102553.09;;;23.97;51.34
71601;BME280;59446;52.192;4.628;2022-07-11T12:31:52;102545.22;;;23.95;51.23
71601;BME280;59446;52.192;4.628;2022-07-11T12:34:22;102547.78;;;23.97;51.39
71601;BME280;59446;52.192;4.628;2022-07-11T12:36:50;102544.16;;;23.98;50.94
71601;BME280;59446;52.192;4.628;2022-07-11T12:39:27;102541.09;;;24.05;51.28
71601;BME280;59446;52.192;4.628;2022-07-11T12:41:55;102537.28;;;24.09;51.27
71601;BME280;59446;52.192;4.628;2022-07-11T12:44:28;102538.25;;;24.08;50.92
71601;BME280;59446;52.192;4.628;2022-07-11T12:47:13;102538.50;;;24.04;51.10
71601;BME280;59446;52.192;4.628;2022-07-11T12:49:40;102529.72;;;24.02;51.57
71601;BME280;59446;52.192;4.628;2022-07-11T12:52:11;102533.19;;;24.04;51.04
71601;BME280;59446;52.192;4.628;2022-07-11T12:54:36;102525.59;;;24.12;51.15
71601;BME280;59446;52.192;4.628;2022-07-11T12:57:02;102526.47;;;24.12;50.73
71601;BME280;59446;52.192;4.628;2022-07-11T12:59:30;102526.94;;;24.19;50.71
71601;BME280;59446;52.192;4.628;2022-07-11T13:02:03;102525.91;;;24.21;51.01
71601;BME280;59446;52.192;4.628;2022-07-11T13:04:35;102525.03;;;24.21;50.62
71601;BME280;59446;52.192;4.628;2022-07-11T13:10:04;102514.94;;;24.12;51.33
71601;BME280;59446;52.192;4.628;2022-07-11T13:12:30;102515.91;;;24.11;50.91
71601;BME280;59446;52.192;4.628;2022-07-11T13:15:06;102512.88;;;24.17;50.80
71601;BME280;59446;52.192;4.628;2022-07-11T13:17:53;102506.50;;;24.19;51.24
71601;BME280;59446;52.192;4.628;2022-07-11T13:20:21;102507.34;;;24.20;51.17
71601;BME280;59446;52.192;4.628;2022-07-11T13:22:48;102504.03;;;24.16;51.00